createdAt,value
2022-10-30T00:01:21.629Z,27.30
2022-10-30T00:03:49.595Z,29.70
2022-10-30T00:06:18.472Z,24.40
2022-10-30T00:08:46.359Z,27.10
2022-10-30T00:11:14.205Z,29.10
2022-10-30T00:13:44.877Z,31.00
2022-10-30T00:16:13.047Z,28.80
2022-10-30T00:18:42.362Z,29.20
2022-10-30T00:21:14.209Z,26.50
2022-10-30T00:23:49.045Z,21.30
2022-10-30T00:26:17.767Z,21.40
2022-10-30T00:28:50.428Z,20.20
2022-10-30T00:31:19.319Z,22.60
2022-10-30T00:33:52.373Z,25.30
2022-10-30T00:36:21.336Z,26.70
2022-10-30T00:38:49.356Z,29.20
2022-10-30T00:41:21.368Z,31.90
2022-10-30T00:43:49.614Z,32.70
2022-10-30T00:46:26.585Z,28.90
2022-10-30T00:49:10.424Z,29.40
2022-10-30T00:51:41.889Z,25.60
2022-10-30T00:54:10.857Z,21.10
2022-10-30T00:56:38.901Z,21.50
2022-10-30T00:59:11.466Z,26.00
2022-10-30T01:01:43.638Z,28.50
2022-10-30T01:04:13.840Z,24.70
2022-10-30T01:06:48.111Z,25.40
2022-10-30T01:09:16.483Z,26.60
2022-10-30T01:11:44.362Z,28.80
2022-10-30T01:14:17.039Z,28.40
2022-10-30T01:17:02.248Z,25.80
2022-10-30T01:19:44.224Z,22.90
2022-10-30T01:22:37.498Z,22.50
2022-10-30T01:25:27.814Z,27.40
2022-10-30T01:28:27.054Z,30.00
2022-10-30T01:31:13.920Z,28.00
2022-10-30T01:34:07.282Z,25.70
2022-10-30T01:36:43.440Z,25.30
2022-10-30T01:39:17.934Z,27.30
2022-10-30T01:41:45.904Z,25.30
2022-10-30T01:44:20.286Z,26.30
2022-10-30T01:47:08.894Z,28.00
2022-10-30T01:50:07.270Z,25.70
2022-10-30T01:52:59.701Z,17.70
2022-10-30T01:55:42.307Z,29.30
2022-10-30T01:58:22.644Z,23.40
2022-10-30T02:00:56.412Z,25.60
2022-10-30T02:03:25.902Z,27.90
2022-10-30T02:05:54.632Z,30.80
2022-10-30T02:08:24.574Z,28.30
2022-10-30T02:10:54.408Z,26.50
2022-10-30T02:13:33.199Z,19.60
2022-10-30T02:16:01.298Z,20.40
2022-10-30T02:18:30.261Z,29.00
2022-10-30T02:20:58.699Z,24.50
2022-10-30T02:23:26.771Z,29.20
2022-10-30T02:25:55.540Z,27.30
2022-10-30T02:28:23.941Z,25.80
2022-10-30T02:30:51.914Z,28.20
2022-10-30T02:33:19.982Z,21.50
2022-10-30T02:35:48.793Z,20.50
2022-10-30T02:38:17.075Z,25.50
2022-10-30T02:40:49.285Z,31.90
2022-10-30T02:43:17.587Z,34.70
2022-10-30T02:45:50.733Z,31.70
2022-10-30T02:48:18.622Z,26.90
2022-10-30T02:50:46.453Z,25.10
2022-10-30T02:53:14.279Z,26.70
2022-10-30T02:55:44.024Z,26.90
2022-10-30T02:58:13.218Z,26.00
2022-10-30T03:00:41.108Z,31.60
2022-10-30T03:03:08.984Z,31.60
2022-10-30T03:05:36.894Z,34.10
2022-10-30T03:08:05.030Z,59.70
2022-10-30T03:10:32.918Z,24.80
2022-10-30T03:13:00.674Z,27.30
2022-10-30T03:15:29.007Z,26.00
2022-10-30T03:17:57.358Z,23.50
2022-10-30T03:20:25.430Z,26.60
2022-10-30T03:22:54.444Z,45.10
2022-10-30T03:25:24.360Z,27.40
2022-10-30T03:27:55.651Z,45.00
2022-10-30T03:30:25.059Z,42.30
2022-10-30T03:32:53.395Z,37.40
2022-10-30T03:35:21.627Z,37.20
2022-10-30T03:37:49.630Z,31.20
2022-10-30T03:40:19.432Z,23.00
2022-10-30T03:42:47.875Z,36.70
2022-10-30T03:45:16.044Z,29.90
2022-10-30T03:47:43.839Z,46.80
2022-10-30T03:50:11.702Z,28.50
2022-10-30T03:52:40.243Z,22.00
2022-10-30T03:55:08.910Z,50.00
2022-10-30T03:57:38.337Z,24.00
2022-10-30T04:00:11.712Z,19.30
2022-10-30T04:02:47.536Z,20.30
2022-10-30T04:05:20.870Z,18.90
2022-10-30T04:07:56.930Z,24.10
2022-10-30T04:10:25.676Z,24.20
2022-10-30T04:13:01.105Z,25.70
2022-10-30T04:15:29.439Z,31.20
2022-10-30T04:17:57.655Z,25.40
2022-10-30T04:20:28.036Z,27.30
2022-10-30T04:22:58.597Z,28.70
2022-10-30T04:25:27.693Z,31.00
2022-10-30T04:27:57.508Z,33.10
2022-10-30T04:30:27.238Z,26.60
2022-10-30T04:32:56.886Z,33.20
2022-10-30T04:35:28.120Z,29.80
2022-10-30T04:37:59.638Z,27.40
2022-10-30T04:40:31.026Z,23.30
2022-10-30T04:43:03.837Z,18.60
2022-10-30T04:45:31.981Z,16.90
2022-10-30T04:48:02.829Z,46.20
2022-10-30T04:50:33.584Z,32.00
2022-10-30T04:53:04.649Z,28.30
2022-10-30T04:55:33.393Z,25.80
2022-10-30T04:58:03.809Z,42.60
2022-10-30T05:00:34.304Z,34.50
2022-10-30T05:03:18.440Z,26.20
2022-10-30T05:05:48.378Z,20.80
2022-10-30T05:08:17.128Z,26.50
2022-10-30T05:10:45.102Z,41.00
2022-10-30T05:13:13.647Z,33.00
2022-10-30T05:15:43.101Z,40.70
2022-10-30T05:18:11.054Z,25.70
2022-10-30T05:20:40.810Z,31.00
2022-10-30T05:23:10.345Z,37.80
2022-10-30T05:25:38.351Z,26.50
2022-10-30T05:28:07.163Z,52.80
2022-10-30T05:30:40.324Z,21.60
2022-10-30T05:33:16.280Z,40.90
2022-10-30T05:35:44.420Z,35.10
2022-10-30T05:38:13.256Z,31.30
2022-10-30T05:40:41.165Z,23.90
2022-10-30T05:43:09.574Z,20.90
2022-10-30T05:45:37.365Z,23.10
2022-10-30T05:48:15.003Z,22.60
2022-10-30T05:50:44.728Z,18.70
2022-10-30T05:53:18.657Z,21.70
2022-10-30T05:55:46.560Z,19.10
2022-10-30T05:58:20.301Z,19.70
2022-10-30T06:00:48.885Z,20.80
2022-10-30T06:03:20.039Z,17.10
2022-10-30T06:05:48.430Z,18.70
2022-10-30T06:08:17.402Z,17.30
2022-10-30T06:10:46.652Z,18.20
2022-10-30T06:13:18.074Z,21.00
2022-10-30T06:16:02.090Z,19.70
2022-10-30T06:18:49.870Z,26.30
2022-10-30T06:21:18.209Z,27.10
2022-10-30T06:24:02.446Z,33.30
2022-10-30T06:26:38.206Z,36.90
2022-10-30T06:29:10.614Z,52.30
2022-10-30T06:31:38.715Z,26.70
2022-10-30T06:34:07.050Z,29.30
2022-10-30T06:36:37.241Z,27.90
2022-10-30T06:39:06.182Z,31.40
2022-10-30T06:44:24.371Z,25.00
2022-10-30T06:46:54.468Z,24.30
2022-10-30T06:49:22.449Z,23.30
2022-10-30T06:51:52.831Z,21.60
2022-10-30T06:54:21.134Z,29.60
2022-10-30T06:57:08.925Z,19.50
2022-10-30T06:59:56.659Z,19.00
2022-10-30T07:02:35.789Z,20.10
2022-10-30T07:05:07.770Z,22.80
2022-10-30T07:07:35.682Z,23.60
2022-10-30T07:10:03.761Z,22.50
2022-10-30T07:12:54.080Z,20.40
2022-10-30T07:15:39.931Z,22.60
2022-10-30T07:18:20.349Z,19.80
2022-10-30T07:20:55.560Z,22.40
2022-10-30T07:23:24.509Z,20.80
2022-10-30T07:25:59.515Z,21.00
2022-10-30T07:28:39.902Z,21.50
2022-10-30T07:31:41.471Z,21.30
2022-10-30T07:34:34.541Z,20.90
2022-10-30T07:37:16.831Z,22.00
2022-10-30T07:39:50.969Z,21.10
2022-10-30T07:42:22.962Z,19.70
2022-10-30T07:47:57.136Z,19.40
2022-10-30T07:50:36.700Z,19.50
2022-10-30T07:53:04.697Z,21.20
2022-10-30T07:55:34.429Z,19.50
2022-10-30T07:58:22.322Z,18.90
2022-10-30T08:01:08.253Z,20.20
2022-10-30T08:03:36.769Z,23.50
2022-10-30T08:06:16.257Z,24.00
2022-10-30T08:08:45.157Z,23.70
2022-10-30T08:11:21.296Z,22.40
2022-10-30T08:13:49.331Z,22.30
2022-10-30T08:16:18.769Z,21.20
2022-10-30T08:18:47.411Z,21.30
2022-10-30T08:21:15.466Z,18.70
2022-10-30T08:23:53.638Z,22.60
2022-10-30T08:26:22.018Z,19.60
2022-10-30T08:28:50.023Z,19.70
2022-10-30T08:31:17.923Z,20.60
2022-10-30T08:34:00.112Z,25.60
2022-10-30T08:36:33.260Z,20.20
2022-10-30T08:39:04.185Z,19.10
2022-10-30T08:41:42.572Z,20.10
2022-10-30T08:44:11.779Z,20.40
2022-10-30T08:46:51.351Z,18.10
2022-10-30T08:49:19.684Z,19.00
2022-10-30T08:51:52.876Z,22.90
2022-10-30T08:54:21.107Z,21.40
2022-10-30T08:56:49.077Z,20.50
2022-10-30T08:59:20.311Z,22.30
2022-10-30T09:01:51.674Z,21.20
2022-10-30T09:04:39.823Z,21.70
2022-10-30T09:07:28.025Z,19.80
2022-10-30T09:10:16.358Z,23.70
2022-10-30T09:12:44.258Z,24.40
2022-10-30T09:15:13.027Z,25.40
2022-10-30T09:17:58.188Z,24.70
2022-10-30T09:20:27.404Z,23.50
2022-10-30T09:22:56.189Z,24.80
2022-10-30T09:25:26.506Z,24.10
2022-10-30T09:28:07.268Z,24.40
2022-10-30T09:30:52.838Z,24.40
2022-10-30T09:33:22.657Z,24.80
2022-10-30T09:36:10.470Z,21.50
2022-10-30T09:38:38.380Z,21.80
2022-10-30T09:41:24.798Z,23.40
2022-10-30T09:44:10.726Z,23.10
2022-10-30T09:47:22.358Z,23.30
2022-10-30T09:50:19.195Z,24.30
2022-10-30T09:53:07.486Z,21.20
2022-10-30T09:55:57.451Z,23.00
2022-10-30T09:58:38.131Z,21.40
2022-10-30T10:01:19.765Z,23.50
2022-10-30T10:04:05.514Z,19.40
2022-10-30T10:06:51.130Z,23.50
2022-10-30T10:09:40.145Z,22.90
2022-10-30T10:12:30.960Z,17.80
2022-10-30T10:15:04.833Z,17.60
2022-10-30T10:17:41.010Z,22.30
2022-10-30T10:20:17.456Z,18.00
2022-10-30T10:25:21.390Z,21.10
2022-10-30T10:28:20.651Z,19.90
2022-10-30T10:31:07.137Z,19.90
2022-10-30T10:33:59.182Z,20.00
2022-10-30T10:36:40.143Z,18.60
2022-10-30T10:39:41.411Z,19.10
2022-10-30T10:42:23.918Z,18.50
2022-10-30T10:45:12.466Z,19.60
2022-10-30T10:48:03.762Z,21.60
2022-10-30T10:50:36.468Z,20.90
2022-10-30T10:53:15.393Z,21.40
2022-10-30T10:55:48.740Z,18.20
2022-10-30T10:58:29.662Z,19.50
2022-10-30T11:00:59.273Z,21.10
2022-10-30T11:03:38.531Z,18.90
2022-10-30T11:06:27.352Z,19.60
2022-10-30T11:09:13.468Z,17.30
2022-10-30T11:11:41.554Z,16.00
2022-10-30T11:14:15.729Z,16.30
2022-10-30T11:16:59.082Z,15.50
2022-10-30T11:19:30.971Z,16.20
2022-10-30T11:22:02.102Z,17.90
2022-10-30T11:24:36.306Z,18.70
2022-10-30T11:27:24.957Z,24.00
2022-10-30T11:30:02.127Z,20.30
2022-10-30T11:35:17.973Z,15.40
2022-10-30T11:37:48.941Z,16.60
2022-10-30T11:40:22.052Z,17.80
2022-10-30T11:43:02.172Z,18.30
2022-10-30T11:45:36.480Z,16.80
2022-10-30T11:48:27.195Z,22.20
2022-10-30T11:51:01.469Z,17.50
2022-10-30T11:53:38.527Z,14.30
2022-10-30T11:56:16.730Z,14.10
2022-10-30T11:58:50.775Z,15.30
2022-10-30T12:01:27.015Z,16.20
2022-10-30T12:03:56.413Z,17.80
2022-10-30T12:06:29.843Z,17.10
2022-10-30T12:09:21.108Z,18.20
2022-10-30T12:11:50.112Z,18.50
2022-10-30T12:14:21.901Z,17.40
2022-10-30T12:16:52.747Z,15.90
2022-10-30T12:19:23.325Z,14.20
2022-10-30T12:21:53.905Z,17.50
2022-10-30T12:24:31.334Z,16.40
2022-10-30T12:27:04.340Z,14.00
2022-10-30T12:30:06.883Z,18.50
2022-10-30T12:35:38.469Z,11.70
2022-10-30T12:38:13.909Z,15.30
2022-10-30T12:40:50.283Z,13.40
2022-10-30T12:43:26.115Z,14.90
2022-10-30T12:46:08.371Z,16.50
2022-10-30T12:48:47.754Z,13.40
2022-10-30T12:51:39.100Z,14.10
2022-10-30T12:54:30.176Z,14.60
2022-10-30T12:57:08.533Z,13.20
2022-10-30T12:59:54.598Z,16.30
2022-10-30T13:02:33.985Z,13.80
2022-10-30T13:05:07.415Z,10.60
2022-10-30T13:07:45.124Z,11.30
2022-10-30T13:10:33.295Z,11.30
2022-10-30T13:13:10.300Z,12.00
2022-10-30T13:15:45.666Z,15.70
2022-10-30T13:18:23.262Z,12.40
2022-10-30T13:21:06.177Z,10.90
2022-10-30T13:23:44.843Z,10.40
2022-10-30T13:26:35.335Z,10.20
2022-10-30T13:29:16.367Z,10.70
2022-10-30T13:31:58.026Z,13.20
2022-10-30T13:34:42.061Z,11.60
2022-10-30T13:37:31.723Z,13.00
2022-10-30T13:40:14.699Z,10.40
2022-10-30T13:42:55.977Z,11.10
2022-10-30T13:46:02.827Z,10.20
2022-10-30T13:48:52.913Z,13.10
2022-10-30T13:51:43.016Z,13.00
2022-10-30T13:54:33.239Z,11.50
2022-10-30T13:57:14.386Z,12.50
2022-10-30T14:00:02.351Z,14.00
2022-10-30T14:03:04.224Z,12.00
2022-10-30T14:05:54.557Z,13.80
2022-10-30T14:08:39.386Z,9.80
2022-10-30T14:11:12.164Z,14.10
2022-10-30T14:13:57.178Z,13.10
2022-10-30T14:16:41.280Z,10.20
2022-10-30T14:19:11.531Z,11.00
2022-10-30T14:21:45.433Z,10.90
2022-10-30T14:24:18.045Z,11.10
2022-10-30T14:26:52.688Z,9.10
2022-10-30T14:29:42.795Z,12.60
2022-10-30T14:32:34.796Z,11.70
2022-10-30T14:35:03.469Z,13.30
2022-10-30T14:37:55.839Z,12.90
2022-10-30T14:40:45.678Z,10.30
2022-10-30T14:43:30.829Z,12.30
2022-10-30T14:46:04.416Z,14.50
2022-10-30T14:48:58.558Z,12.30
2022-10-30T14:51:41.485Z,13.10
2022-10-30T14:54:24.989Z,15.10
2022-10-30T14:56:54.595Z,13.60
2022-10-30T14:59:32.276Z,14.30
2022-10-30T15:02:18.495Z,11.60
2022-10-30T15:05:17.626Z,11.00
2022-10-30T15:07:54.094Z,9.50
2022-10-30T15:10:31.883Z,12.20
2022-10-30T15:13:20.308Z,12.70
2022-10-30T15:15:59.467Z,13.10
2022-10-30T15:18:30.695Z,11.90
2022-10-30T15:21:05.180Z,12.60
2022-10-30T15:23:36.663Z,12.30
2022-10-30T15:26:09.896Z,17.20
2022-10-30T15:28:39.079Z,14.40
2022-10-30T15:31:19.161Z,14.10
2022-10-30T15:33:47.241Z,17.60
2022-10-30T15:36:20.261Z,20.10
2022-10-30T15:39:03.765Z,22.70
2022-10-30T15:41:32.727Z,23.00
2022-10-30T15:44:00.929Z,20.20
2022-10-30T15:46:29.443Z,20.90
2022-10-30T15:48:57.990Z,24.00
2022-10-30T15:51:26.008Z,19.20
2022-10-30T15:54:00.804Z,28.00
2022-10-30T15:57:08.082Z,21.00
2022-10-30T15:59:34.924Z,23.60
2022-10-30T16:02:02.958Z,24.70
2022-10-30T16:04:33.266Z,21.40
2022-10-30T16:07:15.527Z,20.10
2022-10-30T16:09:54.372Z,21.50
2022-10-30T16:12:28.314Z,21.70
2022-10-30T16:14:58.292Z,21.80
2022-10-30T16:17:27.148Z,22.60
2022-10-30T16:20:01.125Z,19.20
2022-10-30T16:22:36.362Z,20.20
2022-10-30T16:25:08.741Z,21.10
2022-10-30T16:27:44.296Z,21.80
2022-10-30T16:30:15.279Z,24.40
2022-10-30T16:32:52.418Z,19.70
2022-10-30T16:35:23.030Z,25.60
2022-10-30T16:37:52.860Z,24.90
2022-10-30T16:40:26.537Z,25.70
2022-10-30T16:42:59.156Z,24.20
2022-10-30T16:45:49.404Z,31.60
2022-10-30T16:48:27.327Z,34.00
2022-10-30T16:51:00.767Z,33.70
2022-10-30T16:53:30.119Z,36.80
2022-10-30T16:55:59.891Z,39.50
2022-10-30T16:58:31.709Z,39.10
2022-10-30T17:01:07.016Z,37.40
2022-10-30T17:03:40.106Z,39.40
2022-10-30T17:06:30.029Z,43.30
2022-10-30T17:08:59.982Z,41.50
2022-10-30T17:11:38.743Z,41.30
2022-10-30T17:14:23.286Z,43.10
2022-10-30T17:16:55.573Z,40.50
2022-10-30T17:19:46.387Z,38.50
2022-10-30T17:22:19.340Z,27.50
2022-10-30T17:24:48.756Z,28.00
2022-10-30T17:27:46.239Z,25.50
2022-10-30T17:30:42.908Z,27.90
2022-10-30T17:33:42.135Z,31.30
2022-10-30T17:36:10.393Z,28.80
2022-10-30T17:38:38.679Z,27.50
2022-10-30T17:41:08.335Z,31.50
2022-10-30T17:43:52.514Z,36.00
2022-10-30T17:46:20.977Z,33.60
2022-10-30T17:48:49.086Z,31.10
2022-10-30T17:51:18.383Z,36.30
2022-10-30T17:53:48.480Z,34.20
2022-10-30T17:56:30.711Z,34.30
2022-10-30T17:58:58.597Z,39.60
2022-10-30T18:01:28.425Z,45.40
2022-10-30T18:03:56.525Z,43.30
2022-10-30T18:06:27.402Z,45.60
2022-10-30T18:08:56.053Z,44.80
2022-10-30T18:11:24.987Z,48.50
2022-10-30T18:13:55.400Z,46.40
2022-10-30T18:16:24.131Z,50.10
2022-10-30T18:18:54.317Z,44.60
2022-10-30T18:21:23.931Z,42.90
2022-10-30T18:23:53.225Z,46.80
2022-10-30T18:26:24.915Z,48.50
2022-10-30T18:28:53.443Z,49.20
2022-10-30T18:31:23.340Z,49.20
2022-10-30T18:33:51.480Z,45.60
2022-10-30T18:36:22.340Z,45.50
2022-10-30T18:38:52.769Z,46.30
2022-10-30T18:41:31.115Z,50.20
2022-10-30T18:44:00.491Z,52.10
2022-10-30T18:46:31.059Z,46.00
2022-10-30T18:48:59.025Z,52.90
2022-10-30T18:51:28.645Z,52.90
2022-10-30T18:53:57.232Z,49.90
2022-10-30T18:56:29.993Z,48.80
2022-10-30T18:59:02.028Z,54.70
2022-10-30T19:01:32.448Z,57.60
2022-10-30T19:04:02.281Z,56.60
2022-10-30T19:06:32.862Z,51.40
2022-10-30T19:09:00.725Z,56.20
2022-10-30T19:11:31.364Z,53.60
2022-10-30T19:14:00.406Z,57.90
2022-10-30T19:16:28.859Z,52.00
2022-10-30T19:18:56.711Z,52.80
2022-10-30T19:21:26.135Z,53.80
2022-10-30T19:23:55.847Z,45.70
2022-10-30T19:26:24.217Z,52.30
2022-10-30T19:28:52.066Z,48.80
2022-10-30T19:31:19.907Z,45.80
2022-10-30T19:33:52.877Z,62.00
2022-10-30T19:36:30.697Z,52.80
2022-10-30T19:39:04.290Z,56.70
2022-10-30T19:41:37.524Z,73.60
2022-10-30T19:44:06.198Z,53.90
2022-10-30T19:46:34.888Z,52.40
2022-10-30T19:49:17.486Z,56.30
2022-10-30T19:51:48.694Z,52.30
2022-10-30T19:54:16.881Z,50.60
2022-10-30T19:56:45.038Z,53.60
2022-10-30T19:59:14.488Z,55.70
2022-10-30T20:01:44.308Z,55.80
2022-10-30T20:04:13.099Z,56.90
2022-10-30T20:06:41.060Z,73.40
2022-10-30T20:09:12.347Z,75.00
2022-10-30T20:11:40.265Z,56.10
2022-10-30T20:14:10.710Z,56.20
2022-10-30T20:16:38.697Z,84.70
2022-10-30T20:19:28.097Z,62.80
2022-10-30T20:21:56.044Z,64.80
2022-10-30T20:24:24.378Z,69.10
2022-10-30T20:26:55.412Z,61.00
2022-10-30T20:29:25.271Z,65.10
2022-10-30T20:31:53.118Z,60.00
2022-10-30T20:34:20.988Z,59.20
2022-10-30T20:36:50.162Z,55.10
2022-10-30T20:39:18.039Z,62.10
2022-10-30T20:41:46.502Z,61.40
2022-10-30T20:44:14.386Z,61.90
2022-10-30T20:46:42.863Z,58.60
2022-10-30T20:49:17.695Z,66.20
2022-10-30T20:51:47.579Z,64.00
2022-10-30T20:54:15.463Z,64.70
2022-10-30T20:56:43.432Z,61.30
2022-10-30T20:59:11.424Z,60.30
2022-10-30T21:01:39.394Z,57.60
2022-10-30T21:04:07.240Z,52.70
2022-10-30T21:06:35.109Z,51.10
2022-10-30T21:09:03.493Z,59.20
2022-10-30T21:11:31.468Z,53.60
2022-10-30T21:13:59.313Z,50.70
2022-10-30T21:16:27.336Z,51.60
2022-10-30T21:18:55.425Z,47.50
2022-10-30T21:21:25.783Z,56.00
2022-10-30T21:23:54.984Z,51.80
2022-10-30T21:26:24.679Z,49.90
2022-10-30T21:28:53.213Z,55.50
2022-10-30T21:31:21.416Z,56.00
2022-10-30T21:33:49.363Z,63.40
2022-10-30T21:36:19.940Z,55.70
2022-10-30T21:38:48.567Z,58.90
2022-10-30T21:41:20.963Z,54.10
2022-10-30T21:43:52.645Z,57.30
2022-10-30T21:46:21.974Z,57.50
2022-10-30T21:48:50.272Z,53.00
2022-10-30T21:51:23.888Z,56.50
2022-10-30T21:53:52.665Z,54.30
2022-10-30T21:56:23.547Z,50.30
2022-10-30T21:58:51.853Z,52.50
2022-10-30T22:01:22.629Z,54.60
2022-10-30T22:03:50.647Z,56.30
2022-10-30T22:06:20.527Z,56.30
2022-10-30T22:08:50.313Z,61.80
2022-10-30T22:11:19.025Z,57.40
2022-10-30T22:13:47.447Z,63.80
2022-10-30T22:16:15.680Z,62.80
2022-10-30T22:18:43.480Z,72.30
2022-10-30T22:21:13.194Z,67.80
2022-10-30T22:23:42.157Z,58.30
2022-10-30T22:26:14.688Z,58.10
2022-10-30T22:28:43.961Z,55.20
2022-10-30T22:31:14.747Z,48.30
2022-10-30T22:33:43.943Z,53.80
2022-10-30T22:36:19.852Z,52.50
2022-10-30T22:38:49.346Z,49.70
2022-10-30T22:41:20.240Z,46.60
2022-10-30T22:43:49.356Z,50.30
2022-10-30T22:46:18.632Z,49.60
2022-10-30T22:48:46.477Z,52.50
2022-10-30T22:51:16.756Z,48.00
2022-10-30T22:53:46.605Z,56.70
2022-10-30T22:56:19.029Z,49.80
2022-10-30T22:58:48.637Z,53.40
2022-10-30T23:01:24.135Z,58.00
2022-10-30T23:03:54.968Z,52.60
2022-10-30T23:06:23.135Z,51.90
2022-10-30T23:08:53.243Z,57.20
2022-10-30T23:11:21.481Z,49.70
2022-10-30T23:13:49.936Z,53.40
2022-10-30T23:16:20.488Z,50.50
2022-10-30T23:18:49.646Z,54.60
2022-10-30T23:21:20.536Z,44.90
2022-10-30T23:23:49.390Z,51.10
2022-10-30T23:26:21.366Z,54.20
2022-10-30T23:28:51.105Z,51.40
2022-10-30T23:31:23.711Z,51.90
2022-10-30T23:33:54.158Z,54.50
2022-10-30T23:36:23.300Z,55.50
2022-10-30T23:38:54.350Z,57.70
2022-10-30T23:41:25.358Z,53.40
2022-10-30T23:43:55.891Z,62.50
2022-10-30T23:46:24.003Z,54.90
2022-10-30T23:48:52.148Z,61.60
2022-10-30T23:51:21.213Z,51.80
2022-10-30T23:53:50.171Z,49.40
2022-10-30T23:56:18.803Z,49.50
2022-10-30T23:58:48.239Z,48.60
